aviador You're here:

LFBC Decoded Metar

CAZAUX in FRANCE
Report Time2018-05-20 23:00:00
UTC Time2018-05-20 23:11:52
Flight Rules vfr VFR
WindCalm
Visibility9999 m
Phenomena:N/A
Clouds:N/A
Expected CloudBase > 800 ft AGL from Temp-Dew spread
CeilingNone
Temp14°C (ISA -1)
Dew Point12°C (88% RH)
QNH1013 hPa
Density Alt203 ft
Elevation108 ft
Report Wrong Elevation
Raw Report
LFBC 202300Z AUTO 00000KT CAVOK 14/12 Q1013=

Extra information for LFBC:More info

Metar Taf Metar & Taf Last 4 Metars F.Rules Stats Wind Profile Meteogram Temp Stats Airport Information Weather charts Add Link Nearby VenuesMetar ALERT Operation Metar Decoded Social comments